Time;durP1;ratioP1;P1;durP2;ratioP2;P2;SDS_P1;SDS_P2;PMS_P1;PMS_P2;Temp;Humidity;BMP_temperature;BMP_pressure;BME280_temperature;BME280_humidity;BME280_pressure;Samples;Min_cycle;Max_cycle;Signal;HPM_P1;HPM_P2
2024/01/12 00:01:29;;;;;;;;;84.25;65.00;;;;;-4.63;59.05;99886.22;4997129;28;8957;-78
2024/01/12 00:03:58;;;;;;;;;75.25;57.50;;;;;-4.99;60.39;99886.28;5030725;28;8838;-76
2024/01/12 00:06:27;;;;;;;;;81.50;63.50;;;;;-4.78;59.88;99899.22;5048526;28;8946;-79
2024/01/12 00:08:56;;;;;;;;;77.50;62.75;;;;;-4.79;59.88;99901.69;5048519;28;8854;-79
2024/01/12 00:11:25;;;;;;;;;72.00;57.75;;;;;-5.10;61.15;99903.69;5032085;28;8964;-77
2024/01/12 00:13:54;;;;;;;;;65.00;53.25;;;;;-4.76;59.93;99900.16;5048864;28;8882;-79
2024/01/12 00:16:24;;;;;;;;;78.50;60.00;;;;;-4.61;59.31;99906.00;5048672;28;8842;-79
2024/01/12 00:18:53;;;;;;;;;73.75;58.25;;;;;-5.05;60.67;99909.06;5050053;28;8842;-81
2024/01/12 00:21:22;;;;;;;;;74.50;58.50;;;;;-5.18;60.24;99917.84;5050892;28;8862;-80
2024/01/12 00:23:51;;;;;;;;;73.00;59.00;;;;;-5.19;60.69;99918.63;5017798;28;8870;-75
2024/01/12 00:26:20;;;;;;;;;83.00;62.75;;;;;-5.38;62.02;99918.53;5053505;28;8838;-78
2024/01/12 00:28:49;;;;;;;;;74.00;57.50;;;;;-5.19;60.44;99913.50;5069623;28;8898;-80
2024/01/12 00:31:18;;;;;;;;;71.50;58.50;;;;;-5.41;61.83;99924.41;5030266;28;8850;-79
2024/01/12 00:33:48;;;;;;;;;72.50;60.00;;;;;-5.63;62.23;99917.34;5005852;28;8889;-78
2024/01/12 00:36:18;;;;;;;;;78.50;59.50;;;;;-5.57;62.19;99927.88;5034997;28;8887;-77
2024/01/12 00:38:46;;;;;;;;;62.50;49.00;;;;;-5.53;62.11;99910.97;5047432;28;8862;-79
2024/01/12 00:41:16;;;;;;;;;78.25;62.00;;;;;-5.28;61.18;99920.78;5001388;28;8879;-81
2024/01/12 00:43:44;;;;;;;;;68.25;55.00;;;;;-6.15;63.08;99942.81;5022541;28;8888;-79
2024/01/12 00:46:14;;;;;;;;;68.50;54.00;;;;;-5.56;62.77;99945.00;5017808;28;8846;-78
2024/01/12 00:48:43;;;;;;;;;75.00;58.00;;;;;-5.99;63.15;99947.94;5053885;28;8902;-78
2024/01/12 00:51:13;;;;;;;;;64.33;48.67;;;;;-5.81;63.18;99946.34;5054615;28;8848;-78
2024/01/12 00:53:46;;;;;;;;;58.75;46.75;;;;;-5.52;62.53;99941.81;5030914;28;9855;-80
2024/01/12 00:56:15;;;;;;;;;71.75;57.00;;;;;-5.35;61.55;99941.78;5013539;28;8849;-77
2024/01/12 00:58:44;;;;;;;;;71.25;57.25;;;;;-5.25;61.71;99938.84;4996130;28;8940;-77
2024/01/12 01:01:13;;;;;;;;;66.75;55.25;;;;;-5.21;60.91;99935.63;5029480;28;8984;-77
2024/01/12 01:03:42;;;;;;;;;68.00;52.25;;;;;-4.92;60.66;99943.84;5029622;28;9844;-79
2024/01/12 01:06:11;;;;;;;;;71.50;60.50;;;;;-4.77;60.32;99929.19;5009635;28;8891;-78
2024/01/12 01:08:42;;;;;;;;;75.25;58.00;;;;;-4.83;59.80;99924.66;5012156;28;8887;-79
2024/01/12 01:11:11;;;;;;;;;73.50;60.25;;;;;-4.75;59.02;99914.75;5019900;28;8930;-77
2024/01/12 01:13:40;;;;;;;;;79.50;61.25;;;;;-5.03;59.51;99913.44;5022252;28;8892;-78
2024/01/12 01:16:10;;;;;;;;;76.25;57.75;;;;;-4.93;59.83;99913.88;5018034;28;8868;-77
2024/01/12 01:18:39;;;;;;;;;70.25;56.25;;;;;-5.01;59.97;99919.50;5031666;28;8864;-78
2024/01/12 01:21:08;;;;;;;;;70.00;55.00;;;;;-5.10;60.27;99908.81;4997654;28;8852;-80
2024/01/12 01:23:37;;;;;;;;;78.25;61.00;;;;;-4.98;59.58;99921.38;5031143;28;8867;-77
2024/01/12 01:26:08;;;;;;;;;68.75;57.75;;;;;-4.95;59.47;99915.50;4985277;28;9096;-80
2024/01/12 01:28:36;;;;;;;;;70.00;58.00;;;;;-4.96;60.16;99922.31;4997319;28;8900;-79
2024/01/12 01:31:05;;;;;;;;;67.00;53.25;;;;;-4.88;59.56;99922.69;4978148;28;8828;-77
2024/01/12 01:33:34;;;;;;;;;75.00;56.50;;;;;-4.97;59.53;99924.81;5036586;28;8905;-79
2024/01/12 01:36:04;;;;;;;;;74.75;56.75;;;;;-5.00;59.67;99917.84;5037249;28;8913;-77
2024/01/12 01:38:33;;;;;;;;;74.50;58.75;;;;;-4.69;59.27;99903.91;5061994;28;8856;-78
2024/01/12 01:41:02;;;;;;;;;76.75;61.50;;;;;-4.67;58.49;99905.72;5056783;28;8843;-79
2024/01/12 01:43:32;;;;;;;;;74.50;57.25;;;;;-4.45;58.34;99899.00;5069502;28;8851;-77
2024/01/12 01:46:02;;;;;;;;;66.50;54.25;;;;;-4.43;58.06;99902.53;5053019;28;8848;-80
2024/01/12 01:48:30;;;;;;;;;78.25;60.50;;;;;-4.59;57.95;99903.50;5049600;28;8854;-77
2024/01/12 01:50:59;;;;;;;;;78.00;59.75;;;;;-4.57;57.73;99904.44;5033243;28;8853;-79
2024/01/12 01:53:30;;;;;;;;;77.00;59.50;;;;;-4.35;57.80;99892.59;5050191;28;8872;-79
2024/01/12 01:55:58;;;;;;;;;67.75;55.50;;;;;-4.71;58.58;99896.13;5032753;28;8834;-78
2024/01/12 01:58:28;;;;;;;;;78.25;58.50;;;;;-4.79;58.66;99899.13;5033427;28;8858;-79
2024/01/12 02:00:59;;;;;;;;;73.25;57.25;;;;;-4.57;58.36;99893.31;5034363;28;8867;-76
2024/01/12 02:03:29;;;;;;;;;74.00;60.75;;;;;-4.50;57.69;99882.53;5051526;28;8831;-77
2024/01/12 02:05:59;;;;;;;;;72.50;58.50;;;;;-4.70;57.96;99891.88;5049908;28;9250;-77
2024/01/12 02:08:28;;;;;;;;;70.50;56.50;;;;;-4.69;58.26;99891.94;5016894;28;8953;-77
2024/01/12 02:10:58;;;;;;;;;69.50;57.25;;;;;-4.47;57.88;99880.97;5069059;28;8972;-78
2024/01/12 02:13:26;;;;;;;;;73.50;59.50;;;;;-4.45;57.75;99886.19;5056555;28;8928;-76
2024/01/12 02:15:55;;;;;;;;;70.75;56.00;;;;;-4.37;57.57;99881.41;5024188;28;9555;-79
2024/01/12 02:18:26;;;;;;;;;78.25;61.25;;;;;-4.44;57.90;99872.53;5037966;28;8884;-80
2024/01/12 02:20:58;;;;;;;;;67.25;52.25;;;;;-4.61;57.97;99874.34;5051435;28;9598;-77
2024/01/12 02:23:27;;;;;;;;;80.75;60.50;;;;;-4.36;57.25;99881.44;5063698;28;9701;-81
2024/01/12 02:25:56;;;;;;;;;71.50;58.75;;;;;-4.31;56.97;99884.22;5032615;28;8838;-81
2024/01/12 02:28:25;;;;;;;;;78.50;65.00;;;;;-4.66;57.78;99889.53;5032863;28;8974;-77
2024/01/12 02:30:55;;;;;;;;;68.50;52.00;;;;;-4.35;57.61;99882.34;5037303;28;8882;-76
2024/01/12 02:33:23;;;;;;;;;70.00;57.00;;;;;-4.13;56.76;99879.91;5050284;28;8876;-80
2024/01/12 02:35:52;;;;;;;;;80.50;64.25;;;;;-4.15;56.97;99873.84;5049412;28;9004;-78
2024/01/12 02:38:23;;;;;;;;;78.75;65.25;;;;;-4.40;56.98;99869.28;5049451;28;8846;-79
2024/01/12 02:40:52;;;;;;;;;80.75;63.25;;;;;-4.76;58.53;99874.50;5033094;28;8842;-79
2024/01/12 02:43:21;;;;;;;;;79.00;59.75;;;;;-4.69;58.58;99862.88;5032726;28;8862;-78
2024/01/12 02:45:49;;;;;;;;;81.25;61.50;;;;;-4.56;58.03;99856.59;5015472;28;8839;-79
2024/01/12 02:48:18;;;;;;;;;68.50;53.75;;;;;-4.53;58.36;99866.97;5014732;28;8877;-77
2024/01/12 02:50:48;;;;;;;;;80.25;63.00;;;;;-4.41;57.83;99875.25;5027377;28;8866;-77
2024/01/12 02:53:18;;;;;;;;;79.00;62.75;;;;;-4.17;57.52;99872.00;5069977;28;8883;-78
2024/01/12 02:55:49;;;;;;;;;79.25;62.50;;;;;-4.65;57.78;99873.31;5068407;28;8840;-78
2024/01/12 02:58:17;;;;;;;;;75.50;62.50;;;;;-4.57;58.84;99858.25;5069575;28;8847;-77
2024/01/12 03:00:47;;;;;;;;;78.00;59.75;;;;;-4.41;58.42;99844.44;5066611;28;8873;-77
2024/01/12 03:03:15;;;;;;;;;74.00;58.50;;;;;-4.74;58.86;99847.25;5068373;28;8848;-80
2024/01/12 03:05:45;;;;;;;;;71.50;60.25;;;;;-4.46;58.60;99848.50;5052010;28;8941;-77
2024/01/12 03:08:14;;;;;;;;;72.50;59.25;;;;;-4.97;59.93;99837.63;5068695;28;8856;-80
2024/01/12 03:10:43;;;;;;;;;55.00;44.00;;;;;-4.83;59.20;99842.59;5070069;28;8836;-76
2024/01/12 03:13:14;;;;;;;;;69.75;55.00;;;;;-4.83;59.19;99836.56;5070174;28;8885;-76
2024/01/12 03:15:43;;;;;;;;;80.75;60.25;;;;;-5.02;60.05;99846.00;4985987;28;8866;-78
2024/01/12 03:18:12;;;;;;;;;77.00;60.75;;;;;-4.78;59.32;99845.34;5053005;28;8850;-77
2024/01/12 03:20:41;;;;;;;;;77.50;56.75;;;;;-4.97;59.89;99866.72;5023736;28;8860;-77
2024/01/12 03:23:10;;;;;;;;;81.75;64.00;;;;;-4.78;59.40;99867.56;5057514;28;8853;-76
2024/01/12 03:25:39;;;;;;;;;70.25;56.50;;;;;-4.96;59.96;99872.69;5039730;28;8863;-79
2024/01/12 03:28:09;;;;;;;;;76.00;61.25;;;;;-4.77;59.98;99865.06;5037756;28;8890;-78
2024/01/12 03:30:40;;;;;;;;;74.50;60.75;;;;;-4.95;59.75;99871.91;5044923;28;8840;-77
2024/01/12 03:33:09;;;;;;;;;68.25;51.75;;;;;-4.79;59.26;99874.38;5031893;28;8850;-74
2024/01/12 03:35:39;;;;;;;;;73.00;59.75;;;;;-4.66;59.25;99868.09;5017857;28;8864;-78
2024/01/12 03:38:08;;;;;;;;;71.50;59.75;;;;;-5.26;60.49;99880.72;5015986;28;8857;-76
2024/01/12 03:40:37;;;;;;;;;68.00;52.00;;;;;-5.77;62.83;99885.06;5015255;28;8865;-80
2024/01/12 03:43:06;;;;;;;;;68.25;54.75;;;;;-5.56;62.06;99888.66;5048915;28;9635;-78
2024/01/12 03:45:35;;;;;;;;;67.00;55.00;;;;;-5.39;61.60;99879.25;5047840;28;8923;-79
2024/01/12 03:48:06;;;;;;;;;73.00;55.75;;;;;-5.36;62.06;99881.06;4987233;28;8870;-78
2024/01/12 03:50:36;;;;;;;;;70.75;57.75;;;;;-5.04;60.93;99878.38;5041030;28;8921;-77
2024/01/12 03:53:05;;;;;;;;;76.50;61.50;;;;;-5.00;60.13;99876.84;5050004;28;8835;-76
2024/01/12 03:55:35;;;;;;;;;71.50;58.25;;;;;-4.80;60.10;99880.31;5051984;28;8856;-77
2024/01/12 03:58:04;;;;;;;;;72.50;55.00;;;;;-5.31;61.19;99875.34;5076195;28;8860;-77
2024/01/12 04:00:33;;;;;;;;;63.25;51.75;;;;;-5.11;61.04;99880.59;5034548;28;8840;-77
2024/01/12 04:03:02;;;;;;;;;75.00;57.50;;;;;-4.84;60.05;99875.84;5050804;28;8844;-77
2024/01/12 04:05:32;;;;;;;;;71.50;56.75;;;;;-4.71;59.51;99883.31;5069252;28;8840;-81
2024/01/12 04:08:02;;;;;;;;;66.50;54.75;;;;;-5.06;60.54;99889.34;5059614;28;8985;-77
2024/01/12 04:10:31;;;;;;;;;73.50;56.00;;;;;-5.12;60.46;99901.88;5069764;28;8876;-79
2024/01/12 04:13:00;;;;;;;;;75.50;60.00;;;;;-5.22;60.79;99906.56;5053673;28;8850;-79
2024/01/12 04:15:29;;;;;;;;;69.75;54.25;;;;;-5.20;61.06;99901.50;5031198;28;8846;-79
2024/01/12 04:17:58;;;;;;;;;66.75;52.50;;;;;-5.15;60.81;99920.56;5064723;28;9074;-81
2024/01/12 04:20:27;;;;;;;;;70.00;56.75;;;;;-5.33;61.72;99922.22;5031308;28;8862;-78
2024/01/12 04:22:57;;;;;;;;;66.50;54.50;;;;;-5.29;61.78;99919.00;5048163;28;8854;-77
2024/01/12 04:25:26;;;;;;;;;69.25;57.50;;;;;-5.19;61.58;99921.19;5049170;28;8865;-78
2024/01/12 04:27:55;;;;;;;;;66.00;53.25;;;;;-5.31;61.16;99924.03;5048534;28;8845;-79
2024/01/12 04:30:25;;;;;;;;;67.00;53.50;;;;;-6.04;64.54;99934.00;5030846;28;8946;-79
2024/01/12 04:32:54;;;;;;;;;69.75;57.50;;;;;-5.89;64.27;99934.84;5048988;28;8858;-78
2024/01/12 04:35:23;;;;;;;;;67.25;51.75;;;;;-5.47;63.49;99931.81;5031258;28;8857;-81
2024/01/12 04:37:52;;;;;;;;;72.00;53.50;;;;;-5.41;62.96;99924.41;5048655;28;8927;-79
2024/01/12 04:40:23;;;;;;;;;69.00;56.50;;;;;-5.62;63.29;99927.66;5047895;28;8904;-76
2024/01/12 04:42:52;;;;;;;;;74.50;59.00;;;;;-5.40;62.82;99941.53;5032390;28;8972;-79
2024/01/12 04:45:21;;;;;;;;;68.50;55.50;;;;;-5.56;63.25;99942.44;5049809;28;8838;-75
2024/01/12 04:47:50;;;;;;;;;73.50;60.00;;;;;-5.47;62.84;99942.91;5029931;28;8857;-78
2024/01/12 04:50:20;;;;;;;;;70.50;54.00;;;;;-5.48;63.68;99941.16;5059344;28;8868;-78
2024/01/12 04:52:50;;;;;;;;;66.75;54.00;;;;;-5.36;63.15;99934.88;5031243;28;8853;-79
2024/01/12 04:55:19;;;;;;;;;61.75;49.50;;;;;-5.47;63.47;99942.03;5026372;28;8863;-82
2024/01/12 04:57:50;;;;;;;;;76.00;59.00;;;;;-5.58;63.55;99954.31;5026693;28;8973;-81
2024/01/12 05:00:20;;;;;;;;;75.25;60.75;;;;;-5.22;62.66;99949.25;5009505;28;9067;-81
2024/01/12 05:02:48;;;;;;;;;65.25;51.00;;;;;-5.09;62.23;99955.88;5026755;28;8888;-76
2024/01/12 05:05:18;;;;;;;;;69.50;54.75;;;;;-5.10;62.43;99960.09;5064157;28;8852;-79
2024/01/12 05:07:47;;;;;;;;;74.00;58.50;;;;;-5.08;61.58;99958.47;5049674;28;8883;-79
2024/01/12 05:10:16;;;;;;;;;70.50;51.75;;;;;-4.73;61.65;99951.59;5014002;28;8884;-77
2024/01/12 05:12:45;;;;;;;;;76.75;58.00;;;;;-4.76;61.14;99965.97;5026664;28;8903;-76
2024/01/12 05:15:16;;;;;;;;;68.75;53.75;;;;;-4.59;60.93;99962.50;5029003;28;8869;-80
2024/01/12 05:17:45;;;;;;;;;69.25;54.75;;;;;-4.22;60.06;99959.06;5025643;28;8861;-78
2024/01/12 05:20:14;;;;;;;;;58.75;50.50;;;;;-4.41;59.94;99967.63;5009654;28;8849;-78
2024/01/12 05:22:43;;;;;;;;;67.75;54.50;;;;;-4.33;59.83;99960.28;5025575;28;8865;-77
2024/01/12 05:25:13;;;;;;;;;65.50;52.25;;;;;-4.31;59.72;99969.78;5027497;28;8930;-78
2024/01/12 05:27:42;;;;;;;;;69.50;54.00;;;;;-4.50;60.42;99975.75;5025149;28;8891;-78
2024/01/12 05:30:12;;;;;;;;;71.50;52.75;;;;;-4.91;62.11;99977.22;5026113;28;8864;-80
2024/01/12 05:32:43;;;;;;;;;66.50;49.25;;;;;-4.73;61.20;99978.94;4964733;28;8852;-80
2024/01/12 05:35:13;;;;;;;;;75.75;59.75;;;;;-4.86;62.35;99977.47;5013451;28;8880;-79
2024/01/12 05:37:44;;;;;;;;;63.75;52.25;;;;;-4.92;62.71;99988.31;5013325;28;8865;-81
2024/01/12 05:40:13;;;;;;;;;68.75;50.75;;;;;-4.68;61.85;99978.34;5020625;28;8861;-77
2024/01/12 05:42:42;;;;;;;;;71.25;56.00;;;;;-4.54;61.60;99981.56;5023750;28;9868;-78
2024/01/12 05:45:11;;;;;;;;;68.00;52.00;;;;;-4.30;60.95;99975.78;5033692;28;8970;-81
2024/01/12 05:47:42;;;;;;;;;70.50;53.50;;;;;-4.92;62.56;99987.44;5054230;28;8896;-79
2024/01/12 05:50:11;;;;;;;;;67.75;51.75;;;;;-5.16;63.41;99994.81;5034962;28;8860;-80
2024/01/12 05:52:40;;;;;;;;;67.25;52.50;;;;;-5.29;63.31;100001.00;5038968;28;8886;-79
2024/01/12 05:55:09;;;;;;;;;70.00;57.25;;;;;-4.69;62.35;99991.09;5035987;28;8854;-82
2024/01/12 05:57:38;;;;;;;;;75.75;59.00;;;;;-5.08;62.73;99988.34;5012161;28;8866;-79
2024/01/12 06:00:09;;;;;;;;;66.75;51.75;;;;;-4.71;62.50;99996.16;4992227;28;9690;-79
2024/01/12 06:02:38;;;;;;;;;65.00;52.75;;;;;-5.05;62.92;99998.78;4989066;28;8869;-79
2024/01/12 06:05:09;;;;;;;;;64.25;54.00;;;;;-4.64;62.44;100000.78;4981456;28;9039;-79
2024/01/12 06:07:38;;;;;;;;;64.50;52.00;;;;;-4.24;61.07;99994.06;5028097;28;9641;-80
2024/01/12 06:10:08;;;;;;;;;66.50;53.25;;;;;-4.42;61.51;99994.06;4999771;28;8869;-79
2024/01/12 06:12:37;;;;;;;;;63.75;52.25;;;;;-4.05;60.94;99996.66;5032949;28;8907;-77
2024/01/12 06:15:07;;;;;;;;;79.00;63.00;;;;;-3.92;60.42;99985.25;5028905;28;8876;-80
2024/01/12 06:17:36;;;;;;;;;63.75;53.25;;;;;-4.50;61.04;99988.59;5028474;28;8983;-78
2024/01/12 06:20:07;;;;;;;;;74.25;60.50;;;;;-4.05;60.67;99988.06;5028404;28;8856;-78
2024/01/12 06:22:37;;;;;;;;;57.75;48.50;;;;;-3.93;60.32;99990.31;5028016;28;9013;-80
2024/01/12 06:25:07;;;;;;;;;65.00;54.00;;;;;-4.20;61.07;100000.22;5025560;28;8849;-80
2024/01/12 06:27:36;;;;;;;;;72.75;58.00;;;;;-4.10;60.37;99997.25;4995998;28;8884;-79
2024/01/12 06:30:07;;;;;;;;;70.50;58.00;;;;;-3.94;59.81;99996.22;5032367;28;8873;-79
2024/01/12 06:32:38;;;;;;;;;69.00;56.00;;;;;-3.87;59.68;99995.69;5068563;28;8905;-77
2024/01/12 06:35:10;;;;;;;;;73.25;52.00;;;;;-3.69;59.50;100001.66;5044512;28;8880;-80
2024/01/12 06:37:40;;;;;;;;;67.50;53.50;;;;;-3.64;59.10;100000.19;5048741;28;8858;-77
2024/01/12 06:40:10;;;;;;;;;65.25;49.50;;;;;-3.67;59.26;100005.16;5044103;28;8867;-78
2024/01/12 06:42:41;;;;;;;;;65.75;52.50;;;;;-3.52;58.75;100007.53;5070711;28;8859;-80
2024/01/12 06:45:12;;;;;;;;;64.25;49.50;;;;;-3.71;58.70;100005.84;5052730;28;8859;-76
2024/01/12 06:47:41;;;;;;;;;66.25;55.00;;;;;-3.68;59.07;100011.13;5069796;28;8909;-78
2024/01/12 06:50:10;;;;;;;;;54.75;47.50;;;;;-3.58;59.34;100014.09;5052592;28;8891;-81
2024/01/12 06:52:41;;;;;;;;;62.00;53.00;;;;;-4.02;60.21;100024.13;5052734;28;8978;-78
2024/01/12 06:55:10;;;;;;;;;71.75;57.00;;;;;-4.14;60.57;100029.59;5067316;28;8878;-79
2024/01/12 06:57:39;;;;;;;;;65.00;51.75;;;;;-3.89;59.99;100039.28;5063773;28;8870;-79
2024/01/12 07:00:09;;;;;;;;;67.00;51.00;;;;;-4.07;60.41;100053.88;5060830;28;8864;-79
2024/01/12 07:02:38;;;;;;;;;69.00;55.00;;;;;-4.84;63.14;100065.59;5055245;28;8975;-77
2024/01/12 07:05:08;;;;;;;;;70.25;56.25;;;;;-4.40;61.82;100061.75;5069768;28;9672;-78
2024/01/12 07:07:37;;;;;;;;;66.50;52.00;;;;;-4.66;62.87;100070.75;5052487;28;8867;-75
2024/01/12 07:10:10;;;;;;;;;68.00;54.50;;;;;-4.96;64.73;100072.69;5057403;28;8850;-76
2024/01/12 07:12:38;;;;;;;;;63.50;53.00;;;;;-4.67;63.13;100079.25;5054017;28;8827;-78
2024/01/12 07:15:09;;;;;;;;;63.00;51.50;;;;;-5.00;64.04;100081.94;4985973;28;8854;-75
2024/01/12 07:17:38;;;;;;;;;72.75;53.50;;;;;-4.97;64.80;100083.75;5050647;28;8948;-78
2024/01/12 07:20:10;;;;;;;;;69.25;53.00;;;;;-4.73;63.36;100091.78;5050025;28;8832;-83
2024/01/12 07:22:40;;;;;;;;;62.00;50.00;;;;;-4.48;62.69;100087.03;5047406;28;8854;-79
2024/01/12 07:25:10;;;;;;;;;66.25;53.50;;;;;-4.45;63.12;100091.47;5027775;28;8844;-78
2024/01/12 07:27:39;;;;;;;;;63.50;53.00;;;;;-4.11;61.61;100091.38;4996912;28;8876;-79
2024/01/12 07:30:12;;;;;;;;;76.00;54.75;;;;;-4.27;62.93;100096.56;4993415;28;8831;-78
2024/01/12 07:32:41;;;;;;;;;70.00;54.00;;;;;-4.27;62.71;100097.44;4964684;28;8870;-80
2024/01/12 07:35:11;;;;;;;;;66.75;53.50;;;;;-4.11;62.46;100093.94;4969974;28;8858;-79
2024/01/12 07:37:41;;;;;;;;;65.00;51.75;;;;;-4.56;63.74;100100.31;4981761;28;8913;-78
2024/01/12 07:40:12;;;;;;;;;61.75;50.00;;;;;-4.54;63.79;100117.53;4991040;28;8871;-78
2024/01/12 07:42:41;;;;;;;;;72.00;56.50;;;;;-4.77;64.76;100115.50;4991668;28;8857;-80
2024/01/12 07:45:12;;;;;;;;;68.00;54.25;;;;;-4.65;63.92;100111.00;5001079;28;8851;-82
2024/01/12 07:47:41;;;;;;;;;70.25;54.25;;;;;-4.94;65.66;100109.53;4976907;28;9581;-79
2024/01/12 07:50:11;;;;;;;;;78.75;60.00;;;;;-4.97;65.88;100111.97;5006024;28;9682;-82
2024/01/12 07:52:40;;;;;;;;;67.50;56.25;;;;;-4.84;65.63;100119.47;4973055;28;9600;-81
2024/01/12 07:55:11;;;;;;;;;65.00;51.25;;;;;-4.90;65.39;100119.16;4985498;28;8847;-80
2024/01/12 07:57:40;;;;;;;;;66.50;49.50;;;;;-4.78;64.87;100112.06;4972848;28;9720;-82
2024/01/12 08:00:11;;;;;;;;;67.50;53.75;;;;;-4.37;63.94;100115.78;5025146;28;9100;-79
2024/01/12 08:02:40;;;;;;;;;69.75;54.50;;;;;-4.97;65.61;100122.22;5046547;28;8862;-79
2024/01/12 08:05:11;;;;;;;;;67.50;56.50;;;;;-5.19;67.25;100128.78;5028287;28;8865;-79
2024/01/12 08:07:40;;;;;;;;;70.25;56.25;;;;;-5.05;66.90;100129.50;5012028;28;8866;-80
2024/01/12 08:10:11;;;;;;;;;63.50;53.25;;;;;-5.07;66.97;100126.88;5027796;28;8871;-79
2024/01/12 08:12:40;;;;;;;;;66.75;56.00;;;;;-5.15;67.51;100140.06;4988862;28;9642;-81
2024/01/12 08:15:10;;;;;;;;;69.25;54.25;;;;;-5.44;68.72;100135.19;5032836;28;8849;-82
2024/01/12 08:17:39;;;;;;;;;71.75;57.00;;;;;-5.34;68.77;100135.66;5023317;28;8873;-79
2024/01/12 08:20:09;;;;;;;;;84.75;65.00;;;;;-5.03;67.40;100135.59;5061392;28;8853;-80
2024/01/12 08:22:38;;;;;;;;;70.50;58.50;;;;;-5.16;67.36;100128.06;5054197;28;8840;-81
2024/01/12 08:25:08;;;;;;;;;75.75;59.75;;;;;-5.13;68.09;100134.25;5069208;28;8839;-79
2024/01/12 08:27:39;;;;;;;;;71.25;57.50;;;;;-5.29;68.09;100134.25;5049731;28;9632;-80
2024/01/12 08:30:09;;;;;;;;;81.75;65.75;;;;;-5.65;70.27;100140.06;5052280;28;9605;-82
2024/01/12 08:32:38;;;;;;;;;75.25;58.50;;;;;-5.51;69.71;100135.69;5034028;28;9024;-81
2024/01/12 08:35:13;;;;;;;;;68.25;55.00;;;;;-5.68;70.63;100146.69;5035549;28;8933;-81
2024/01/12 08:37:42;;;;;;;;;74.75;60.25;;;;;-5.84;70.56;100150.97;5051998;28;8856;-79
2024/01/12 08:40:12;;;;;;;;;89.25;66.75;;;;;-5.88;71.96;100155.84;5064076;28;8944;-78
2024/01/12 08:42:42;;;;;;;;;80.75;61.00;;;;;-5.85;72.33;100156.91;5059672;28;8841;-80
2024/01/12 08:45:12;;;;;;;;;76.00;61.50;;;;;-6.02;73.02;100165.31;5054968;28;8846;-78
2024/01/12 08:47:41;;;;;;;;;64.75;52.50;;;;;-5.81;72.08;100169.06;5048597;28;8850;-81
2024/01/12 08:50:10;;;;;;;;;81.75;60.00;;;;;-5.85;72.03;100171.38;5053072;28;8844;-82
2024/01/12 08:52:39;;;;;;;;;70.50;58.00;;;;;-5.71;71.74;100179.81;5038347;28;8986;-81
2024/01/12 08:55:09;;;;;;;;;78.00;60.00;;;;;-5.66;71.71;100183.50;5003388;28;8880;-80
2024/01/12 08:57:40;;;;;;;;;74.50;60.25;;;;;-5.10;69.65;100179.66;5047557;28;8842;-80
2024/01/12 09:00:12;;;;;;;;;86.00;68.00;;;;;-5.04;68.75;100180.88;5031820;28;8830;-77
2024/01/12 09:02:41;;;;;;;;;74.50;60.50;;;;;-5.30;70.25;100188.84;5031387;28;9646;-82
2024/01/12 09:05:12;;;;;;;;;77.25;61.75;;;;;-5.02;69.54;100184.38;5031948;28;8838;-78
2024/01/12 09:07:41;;;;;;;;;90.00;69.00;;;;;-5.29;70.44;100198.31;5035115;28;8854;-81
2024/01/12 09:10:10;;;;;;;;;78.00;63.25;;;;;-5.33;70.82;100188.69;5039191;28;8915;-81
2024/01/12 09:12:39;;;;;;;;;81.25;65.00;;;;;-4.98;70.60;100189.66;5039009;28;8858;-78
2024/01/12 09:15:11;;;;;;;;;84.25;65.50;;;;;-4.64;68.78;100194.84;5053791;28;8986;-80
2024/01/12 09:17:41;;;;;;;;;79.00;63.50;;;;;-4.75;68.31;100193.44;5034381;28;8846;-78
2024/01/12 09:20:11;;;;;;;;;87.25;68.00;;;;;-5.26;70.25;100203.59;5033780;28;8850;-79
2024/01/12 09:22:41;;;;;;;;;84.50;64.25;;;;;-5.35;70.62;100203.97;5016918;28;8866;-79
2024/01/12 09:25:10;;;;;;;;;89.67;69.33;;;;;-5.22;70.30;100196.16;5017004;28;8882;-79
2024/01/12 09:27:39;;;;;;;;;77.75;59.75;;;;;-5.39;70.73;100207.19;5049274;28;9007;-79
2024/01/12 09:30:09;;;;;;;;;83.75;66.50;;;;;-5.46;71.23;100198.28;5037309;28;8903;-82
2024/01/12 09:32:39;;;;;;;;;87.33;69.00;;;;;-5.40;70.97;100211.44;5034596;28;8921;-80
2024/01/12 09:35:10;;;;;;;;;86.33;67.67;;;;;-5.45;70.76;100214.56;5032233;28;9234;-78
2024/01/12 09:37:39;;;;;;;;;85.25;63.75;;;;;-5.31;70.34;100213.59;5036977;28;9087;-79
2024/01/12 09:40:10;;;;;;;;;84.75;66.25;;;;;-5.35;70.23;100223.59;5003690;28;8834;-78
2024/01/12 09:42:43;;;;;;;;;80.00;63.33;;;;;-5.28;70.43;100216.34;5036500;28;8865;-79
2024/01/12 09:45:14;;;;;;;;;73.50;58.50;;;;;-5.58;70.59;100210.44;5065983;28;8958;-78
2024/01/12 09:47:53;;;;;;;;;79.25;63.75;;;;;-5.72;71.59;100219.03;5052596;28;8865;-80
2024/01/12 09:50:23;;;;;;;;;72.50;60.25;;;;;-5.76;71.95;100220.53;5057350;28;8916;-78
2024/01/12 09:52:53;;;;;;;;;78.00;64.50;;;;;-5.45;70.78;100201.75;5060142;28;8883;-77
2024/01/12 09:55:22;;;;;;;;;83.75;62.75;;;;;-5.07;69.33;100206.34;5051536;28;8853;-81
2024/01/12 09:57:52;;;;;;;;;78.50;62.00;;;;;-5.15;69.80;100199.03;5032850;28;8877;-80
2024/01/12 10:00:25;;;;;;;;;82.00;66.00;;;;;-4.59;69.08;100197.63;5066145;28;8868;-82
2024/01/12 10:02:58;;;;;;;;;84.00;68.00;;;;;-4.60;67.37;100199.34;5045478;28;9587;-80
2024/01/12 10:05:29;;;;;;;;;88.00;68.67;;;;;-4.54;67.07;100194.50;5016721;28;9069;-80
2024/01/12 10:07:58;;;;;;;;;83.67;67.00;;;;;-4.64;67.45;100203.44;5016652;28;8952;-80
2024/01/12 10:10:27;;;;;;;;;82.50;65.00;;;;;-4.93;68.69;100208.72;5066247;28;8939;-79
2024/01/12 10:12:56;;;;;;;;;88.25;65.00;;;;;-4.80;68.71;100211.13;5046565;28;8958;-81
2024/01/12 10:15:26;;;;;;;;;78.50;63.75;;;;;-5.01;69.17;100216.91;5031835;28;8877;-80
2024/01/12 10:17:57;;;;;;;;;81.75;66.50;;;;;-5.23;70.54;100220.03;5029301;28;8897;-78
2024/01/12 10:20:27;;;;;;;;;89.67;69.00;;;;;-4.99;70.00;100211.00;5019839;28;8863;-81
2024/01/12 10:22:57;;;;;;;;;78.25;64.00;;;;;-5.10;69.18;100215.53;5010076;28;9175;-80
2024/01/12 10:25:26;;;;;;;;;60.50;52.00;;;;;-4.94;69.17;100217.22;4977836;28;9345;-80
2024/01/12 10:27:56;;;;;;;;;83.00;66.00;;;;;-4.51;68.07;100214.28;4993636;28;8886;-81
2024/01/12 10:30:26;;;;;;;;;72.25;59.00;;;;;-4.90;69.38;100219.16;4993659;28;8862;-79
2024/01/12 10:32:57;;;;;;;;;88.50;69.75;;;;;-5.15;69.80;100223.00;4973149;28;8892;-80
2024/01/12 10:35:27;;;;;;;;;78.00;60.00;;;;;-4.63;69.36;100219.69;4964655;28;8879;-80
2024/01/12 10:37:59;;;;;;;;;80.25;64.00;;;;;-4.27;66.92;100228.34;4972502;28;8872;-82
2024/01/12 10:40:28;;;;;;;;;73.50;54.25;;;;;-4.38;67.23;100229.50;4973031;28;8844;-81
2024/01/12 10:43:00;;;;;;;;;86.00;66.25;;;;;-4.13;67.35;100215.31;4972772;28;8861;-81
2024/01/12 10:45:30;;;;;;;;;85.00;69.00;;;;;-3.48;65.66;100214.16;4973858;28;8883;-81
2024/01/12 10:48:05;;;;;;;;;79.25;64.50;;;;;-3.08;63.74;100211.69;4989898;28;8875;-81
2024/01/12 10:50:42;;;;;;;;;84.00;66.50;;;;;-3.45;63.78;100210.03;4990089;28;8975;-80
2024/01/12 10:53:19;;;;;;;;;85.25;69.00;;;;;-3.28;64.64;100208.25;4986870;28;8872;-80
2024/01/12 10:55:56;;;;;;;;;85.25;68.00;;;;;-2.78;62.80;100205.28;4951722;28;8856;-80
2024/01/12 10:58:25;;;;;;;;;86.00;65.00;;;;;-2.98;62.12;100204.38;4988152;28;8947;-82
2024/01/12 11:00:55;;;;;;;;;78.00;59.50;;;;;-2.86;62.70;100204.94;4995795;28;8834;-81
2024/01/12 11:03:27;;;;;;;;;81.75;65.75;;;;;-3.23;62.56;100200.72;5005874;28;8887;-81
2024/01/12 11:05:58;;;;;;;;;71.50;57.25;;;;;-3.18;63.12;100198.38;5015095;28;8983;-79
2024/01/12 11:08:29;;;;;;;;;87.75;67.50;;;;;-3.08;63.23;100205.69;5025757;28;8930;-80
2024/01/12 11:11:02;;;;;;;;;80.00;66.00;;;;;-3.01;62.47;100193.97;5024379;28;8864;-78
2024/01/12 11:13:57;;;;;;;;;87.75;68.00;;;;;-3.27;63.20;100202.28;5011429;28;8961;-80
2024/01/12 11:16:26;;;;;;;;;87.50;66.25;;;;;-3.74;64.69;100200.94;5045570;28;8873;-81
2024/01/12 11:18:59;;;;;;;;;91.00;69.00;;;;;-3.50;64.07;100201.22;4979566;28;8995;-80
2024/01/12 11:21:29;;;;;;;;;89.50;68.00;;;;;-3.44;64.01;100198.94;5039167;28;8856;-81
2024/01/12 11:23:58;;;;;;;;;88.75;68.50;;;;;-2.81;62.99;100192.28;4993035;28;8960;-82
2024/01/12 11:26:27;;;;;;;;;82.25;66.50;;;;;-2.32;61.23;100195.22;4921982;28;8888;-80
2024/01/12 11:28:59;;;;;;;;;84.75;68.25;;;;;-2.26;60.07;100199.75;4974973;28;8859;-80
2024/01/12 11:31:29;;;;;;;;;87.75;70.75;;;;;-2.37;59.85;100195.88;4979972;28;8994;-81
2024/01/12 11:34:02;;;;;;;;;88.75;67.25;;;;;-2.67;61.41;100197.19;5011838;28;8884;-80